Lucas, KS (67648)

4:28 PM CST on February 11, 2016 (GMT -0600)
Postrock Highway | | Change Station
CLOSE
Current Station
Personal Weather Station
Location: Lucas, KS
Elevation: 1522 ft
Nearby Weather Stations

Elev 1522 ft 39.01 °N, 98.52 °W | Updated 8 minutes ago

Partly Cloudy
Partly Cloudy
41.7 °F
Feels Like 37 °F
N
7.0
Wind Variable Wind from SSW
Gusts 7.0 mph

Today
High -- | Low -- °F
--% Chance of Precip.
Yesterday
High -- | Low -- °F
Precip. -- in
Pressure 30.14 in
Visibility 10.0 miles
Clouds Clear
Windchill 37 °F
Dew Point 32 °F
Humidity 68%
Rainfall 0.00 in
Snow Depth Not available.
7:30 AM 6:06 PM
Waxing Crescent, 15% visible
METAR KRSL 112153Z AUTO 16010KT 10SM CLR 07/M01 A3009 RMK AO2 SLP204 T00671006
Pressure 30.14 in
Visibility 10.0 miles
Clouds Clear
Windchill 37 °F
Dew Point 32 °F
Humidity 68%
Rainfall 0.00 in
Snow Depth Not available.
7:30 AM 6:06 PM
Waxing Crescent, 15% visible
METAR KRSL 112153Z AUTO 16010KT 10SM CLR 07/M01 A3009 RMK AO2 SLP204 T00671006

10-Day Weather Forecast

Almanac

Astronomy

Feb. 11, 2016 Rise Set
Actual Time
Civil Twilight
Nautical Twilight
Astronomical Twilight
Moon
Length of Visible Light
Length of Day
Tomorrow will be .
, % of the Moon is Illuminated

Today's Extremes

State Highs State Lows

Community

WunderPhotos

Upload Photos

1,892,172 photos uploaded!

WunderBlog® & News

Nearby

Air Quality

  Air Quality AQ Index Pollutant
Not available.

Snow Depth

Station Depth Elevation

Earthquake Activity

City Distance Mag. Time & Date
Minimum magnitude displayed is 2.5.

Coastal Water Temperatures

Place Temperature

Stations

Nearby Weather Stations

Station Location Temp. Windchill Dew Point Humidity Wind Precip. Elev Updated Type
                   

Watches & Warnings

There are currently no watches in effect.